createdAt,value
2023-04-01T00:02:14.199Z,11.12
2023-04-01T00:05:17.658Z,11.01
2023-04-01T00:08:20.607Z,10.92
2023-04-01T00:11:23.479Z,10.97
2023-04-01T00:14:26.705Z,10.88
2023-04-01T00:17:29.358Z,10.86
2023-04-01T00:20:32.116Z,10.83
2023-04-01T00:23:36.140Z,10.73
2023-04-01T00:26:39.040Z,10.74
2023-04-01T00:29:47.811Z,10.71
2023-04-01T00:32:54.666Z,10.67
2023-04-01T00:35:57.297Z,10.70
2023-04-01T00:39:00.484Z,10.70
2023-04-01T00:42:04.589Z,10.73
2023-04-01T00:45:25.926Z,10.57
2023-04-01T00:48:42.416Z,10.60
2023-04-01T00:51:47.260Z,10.59
2023-04-01T00:54:53.669Z,10.49
2023-04-01T00:57:58.315Z,10.50
2023-04-01T01:01:01.873Z,10.47
2023-04-01T01:04:04.976Z,10.39
2023-04-01T01:07:26.072Z,10.48
2023-04-01T01:10:35.510Z,10.61
2023-04-01T01:13:54.733Z,10.77
2023-04-01T01:17:06.126Z,10.90
2023-04-01T01:20:36.607Z,11.09
2023-04-01T01:24:16.982Z,11.11
2023-04-01T01:27:22.531Z,11.12
2023-04-01T01:30:45.143Z,11.06
2023-04-01T01:33:59.299Z,11.13
2023-04-01T01:37:09.249Z,11.13
2023-04-01T01:40:16.164Z,11.21
2023-04-01T01:43:23.833Z,11.14
2023-04-01T01:46:29.083Z,11.12
2023-04-01T01:49:35.549Z,11.13
2023-04-01T01:52:38.512Z,11.16
2023-04-01T01:55:44.123Z,11.09
2023-04-01T01:58:53.009Z,11.15
2023-04-01T02:01:58.462Z,11.12
2023-04-01T02:05:02.583Z,11.20
2023-04-01T02:08:22.892Z,11.23
2023-04-01T02:11:38.201Z,11.28
2023-04-01T02:14:50.707Z,11.24
2023-04-01T02:17:55.382Z,11.27
2023-04-01T02:21:00.338Z,11.24
2023-04-01T02:24:06.890Z,11.21
2023-04-01T02:27:11.657Z,11.24
2023-04-01T02:30:17.916Z,11.30
2023-04-01T02:33:22.134Z,11.18
2023-04-01T02:36:26.031Z,11.16
2023-04-01T02:39:28.633Z,11.07
2023-04-01T02:42:31.207Z,11.09
2023-04-01T02:45:34.083Z,11.15
2023-04-01T02:48:37.023Z,11.16
2023-04-01T02:51:39.630Z,11.18
2023-04-01T02:54:42.714Z,11.06
2023-04-01T02:57:45.400Z,11.10
2023-04-01T03:00:48.276Z,11.01
2023-04-01T03:03:50.978Z,11.03
2023-04-01T03:06:53.838Z,11.11
2023-04-01T03:09:56.473Z,11.06
2023-04-01T03:12:59.065Z,11.03
2023-04-01T03:16:02.241Z,10.91
2023-04-01T03:19:04.882Z,10.86
2023-04-01T03:22:08.906Z,10.92
2023-04-01T03:25:11.627Z,10.90
2023-04-01T03:28:14.783Z,10.90
2023-04-01T03:31:17.503Z,10.90
2023-04-01T03:34:27.271Z,11.01
2023-04-01T03:37:29.887Z,11.03
2023-04-01T03:40:34.119Z,10.81
2023-04-01T03:43:37.023Z,10.81
2023-04-01T03:46:45.079Z,10.75
2023-04-01T03:49:47.804Z,10.77
2023-04-01T03:52:52.256Z,10.85
2023-04-01T03:55:55.374Z,10.77
2023-04-01T03:58:58.351Z,10.64
2023-04-01T04:02:01.331Z,10.77
2023-04-01T04:05:04.722Z,10.77
2023-04-01T04:08:09.668Z,10.76
2023-04-01T04:11:12.480Z,10.63
2023-04-01T04:14:18.194Z,10.64
2023-04-01T04:17:21.803Z,10.52
2023-04-01T04:20:24.510Z,10.42
2023-04-01T04:23:28.128Z,10.35
2023-04-01T04:26:30.891Z,10.26
2023-04-01T04:29:36.337Z,10.23
2023-04-01T04:32:39.094Z,10.32
2023-04-01T04:35:41.835Z,10.29
2023-04-01T04:38:44.826Z,10.44
2023-04-01T04:41:47.677Z,10.54
2023-04-01T04:44:50.299Z,10.67
2023-04-01T04:47:53.181Z,10.56
2023-04-01T04:50:55.727Z,10.58
2023-04-01T04:53:59.874Z,10.59
2023-04-01T04:57:17.701Z,10.52
2023-04-01T05:00:27.648Z,10.63
2023-04-01T05:03:34.213Z,10.78
2023-04-01T05:06:36.849Z,10.71
2023-04-01T05:09:39.860Z,10.71
2023-04-01T05:12:42.760Z,10.74
2023-04-01T05:15:47.209Z,10.85
2023-04-01T05:18:50.006Z,10.93
2023-04-01T05:21:53.986Z,11.05
2023-04-01T05:24:56.794Z,11.16
2023-04-01T05:27:59.803Z,11.22
2023-04-01T05:31:03.977Z,11.33
2023-04-01T05:34:12.825Z,11.47
2023-04-01T05:37:15.502Z,11.64
2023-04-01T05:40:19.184Z,11.81
2023-04-01T05:43:21.824Z,11.95
2023-04-01T05:46:26.477Z,12.12
2023-04-01T05:49:35.059Z,12.09
2023-04-01T05:52:39.623Z,12.34
2023-04-01T05:55:42.374Z,12.56
2023-04-01T05:58:51.327Z,12.62
2023-04-01T06:01:54.515Z,12.76
2023-04-01T06:05:25.343Z,12.82
2023-04-01T06:08:29.350Z,12.96
2023-04-01T06:11:44.731Z,12.98
2023-04-01T06:14:53.216Z,13.14
2023-04-01T06:18:26.827Z,13.20
2023-04-01T06:21:37.213Z,13.28
2023-04-01T06:24:49.529Z,13.29
2023-04-01T06:27:58.818Z,13.29
2023-04-01T06:31:09.261Z,13.53
2023-04-01T06:34:33.597Z,13.62
2023-04-01T06:38:02.562Z,13.61
2023-04-01T06:41:14.219Z,13.69
2023-04-01T06:44:36.079Z,13.73
2023-04-01T06:48:26.129Z,13.78
2023-04-01T06:52:18.130Z,13.83
2023-04-01T06:55:47.091Z,13.77
2023-04-01T06:59:08.204Z,13.82
2023-04-01T07:02:11.062Z,13.89
2023-04-01T07:05:16.170Z,13.87
2023-04-01T07:08:27.878Z,13.70
2023-04-01T07:11:35.557Z,13.96
2023-04-01T07:15:29.377Z,14.12
2023-04-01T07:18:47.371Z,14.22
2023-04-01T07:21:55.887Z,14.37
2023-04-01T07:25:29.423Z,14.47
2023-04-01T07:28:53.133Z,14.62
2023-04-01T07:32:29.566Z,14.80
2023-04-01T07:35:49.257Z,15.00
2023-04-01T07:39:42.609Z,15.14
2023-04-01T07:43:32.422Z,15.30
2023-04-01T07:46:59.317Z,15.65
2023-04-01T07:50:27.746Z,15.90
2023-04-01T07:53:53.026Z,15.98
2023-04-01T07:57:03.287Z,15.89
2023-04-01T08:00:42.632Z,16.14
2023-04-01T08:04:20.172Z,16.48
2023-04-01T08:07:45.179Z,16.80
2023-04-01T08:11:35.156Z,16.86
2023-04-01T08:15:05.431Z,17.10
2023-04-01T08:18:47.369Z,17.22
2023-04-01T08:21:56.294Z,17.26
2023-04-01T08:25:03.694Z,17.27
2023-04-01T08:28:09.423Z,17.22
2023-04-01T08:31:24.063Z,17.18
2023-04-01T08:34:35.355Z,17.45
2023-04-01T08:37:42.892Z,17.25
2023-04-01T08:41:01.409Z,17.54
2023-04-01T08:44:48.976Z,17.39
2023-04-01T08:48:13.407Z,17.54
2023-04-01T08:51:47.151Z,17.18
2023-04-01T08:55:24.900Z,17.24
2023-04-01T08:58:58.057Z,17.99
2023-04-01T09:02:16.897Z,18.37
2023-04-01T09:06:13.212Z,19.34
2023-04-01T09:09:24.735Z,18.63
2023-04-01T09:12:48.517Z,19.23
2023-04-01T09:16:10.481Z,20.22
2023-04-01T09:19:32.501Z,18.76
2023-04-01T09:22:43.709Z,18.91
2023-04-01T09:25:56.150Z,20.01
2023-04-01T09:29:08.161Z,19.06
2023-04-01T09:32:48.313Z,19.15
2023-04-01T09:36:19.926Z,18.43
2023-04-01T09:39:44.452Z,17.40
2023-04-01T09:43:01.839Z,16.56
2023-04-01T09:46:18.740Z,16.20
2023-04-01T09:49:44.184Z,16.50
2023-04-01T09:53:07.234Z,16.34
2023-04-01T09:56:10.045Z,16.22
2023-04-01T09:59:55.420Z,16.25
2023-04-01T10:03:54.278Z,16.75
2023-04-01T10:07:15.961Z,16.82
2023-04-01T10:10:20.303Z,16.22
2023-04-01T10:13:46.598Z,15.96
2023-04-01T10:17:08.751Z,16.82
2023-04-01T10:20:27.340Z,17.21
2023-04-01T10:24:06.337Z,17.57
2023-04-01T10:27:28.272Z,17.72
2023-04-01T10:30:50.235Z,17.35
2023-04-01T10:34:32.890Z,17.01
2023-04-01T10:37:47.864Z,16.55
2023-04-01T10:41:32.506Z,16.95
2023-04-01T10:45:18.086Z,17.54
2023-04-01T10:48:27.589Z,17.09
2023-04-01T10:51:54.861Z,17.04
2023-04-01T10:55:55.138Z,19.27
2023-04-01T11:00:02.015Z,19.50
2023-04-01T11:04:04.687Z,18.98
2023-04-01T11:07:31.302Z,18.93
2023-04-01T11:11:05.476Z,18.09
2023-04-01T11:14:32.455Z,19.22
2023-04-01T11:17:54.713Z,18.32
2023-04-01T11:21:10.043Z,22.41
2023-04-01T11:24:21.836Z,24.23
2023-04-01T11:28:06.587Z,26.24
2023-04-01T11:31:37.195Z,25.15
2023-04-01T11:35:07.469Z,22.88
2023-04-01T11:38:29.777Z,20.50
2023-04-01T11:41:50.152Z,19.35
2023-04-01T11:45:46.757Z,18.11
2023-04-01T11:49:10.015Z,17.14
2023-04-01T11:53:00.807Z,16.42
2023-04-01T11:56:37.187Z,16.22
2023-04-01T11:59:52.121Z,15.98
2023-04-01T12:03:31.748Z,15.84
2023-04-01T12:07:02.577Z,15.89
2023-04-01T12:10:20.351Z,16.08
2023-04-01T12:13:32.205Z,16.22
2023-04-01T12:16:52.709Z,16.60
2023-04-01T12:20:14.150Z,17.43
2023-04-01T12:23:53.501Z,17.71
2023-04-01T12:28:03.892Z,17.98
2023-04-01T12:31:12.321Z,18.67
2023-04-01T12:34:38.282Z,19.28
2023-04-01T12:37:46.940Z,18.94
2023-04-01T12:41:28.199Z,18.65
2023-04-01T12:45:05.028Z,18.56
2023-04-01T12:48:29.318Z,18.65
2023-04-01T12:51:47.255Z,19.00
2023-04-01T12:55:09.763Z,22.47
2023-04-01T12:58:30.628Z,21.97
2023-04-01T13:02:03.808Z,20.90
2023-04-01T13:05:27.222Z,20.65
2023-04-01T13:08:35.877Z,20.41
2023-04-01T13:11:51.515Z,23.30
2023-04-01T13:14:56.798Z,22.04
2023-04-01T13:18:16.110Z,24.23
2023-04-01T13:21:30.639Z,28.58
2023-04-01T13:24:56.147Z,31.92
2023-04-01T13:28:26.919Z,30.32
2023-04-01T13:31:54.395Z,31.71
2023-04-01T13:35:19.449Z,28.03
2023-04-01T13:38:33.447Z,27.48
2023-04-01T13:41:44.953Z,28.49
2023-04-01T13:44:55.772Z,24.59
2023-04-01T13:48:25.870Z,23.28
2023-04-01T13:51:58.764Z,26.43
2023-04-01T13:55:20.821Z,25.00
2023-04-01T13:58:49.939Z,23.90
2023-04-01T14:02:30.429Z,25.53
2023-04-01T14:06:01.557Z,21.57
2023-04-01T14:09:22.801Z,20.27
2023-04-01T14:12:53.457Z,19.52
2023-04-01T14:16:17.963Z,18.47
2023-04-01T14:19:35.709Z,17.68
2023-04-01T14:23:07.027Z,17.27
2023-04-01T14:26:28.359Z,17.02
2023-04-01T14:29:50.187Z,16.70
2023-04-01T14:33:18.732Z,16.54
2023-04-01T14:36:46.518Z,16.50
2023-04-01T14:40:07.318Z,18.67
2023-04-01T14:43:35.170Z,23.16
2023-04-01T14:47:03.353Z,24.11
2023-04-01T14:50:22.809Z,22.20
2023-04-01T14:53:32.747Z,19.85
2023-04-01T14:56:45.368Z,19.62
2023-04-01T15:00:18.274Z,19.69
2023-04-01T15:03:21.185Z,19.85
2023-04-01T15:06:49.909Z,20.01
2023-04-01T15:10:10.721Z,19.71
2023-04-01T15:13:31.416Z,19.75
2023-04-01T15:16:48.155Z,19.62
2023-04-01T15:20:11.996Z,19.49
2023-04-01T15:23:18.975Z,19.27
2023-04-01T15:26:21.630Z,19.26
2023-04-01T15:29:27.459Z,19.06
2023-04-01T15:32:39.645Z,18.86
2023-04-01T15:36:08.597Z,19.00
2023-04-01T15:39:24.891Z,18.87
2023-04-01T15:42:55.419Z,18.97
2023-04-01T15:46:04.287Z,18.62
2023-04-01T15:49:39.812Z,18.48
2023-04-01T15:53:07.110Z,18.20
2023-04-01T15:56:18.138Z,18.12
2023-04-01T16:00:02.512Z,18.15
2023-04-01T16:03:44.692Z,17.99
2023-04-01T16:06:50.682Z,17.92
2023-04-01T16:10:11.783Z,17.88
2023-04-01T16:13:39.393Z,17.62
2023-04-01T16:17:19.175Z,17.33
2023-04-01T16:20:28.637Z,17.19
2023-04-01T16:23:54.419Z,17.05
2023-04-01T16:27:13.715Z,16.94
2023-04-01T16:30:43.880Z,16.86
2023-04-01T16:33:59.207Z,16.87
2023-04-01T16:37:14.267Z,16.62
2023-04-01T16:40:42.297Z,16.50
2023-04-01T16:43:58.686Z,16.21
2023-04-01T16:47:14.149Z,16.09
2023-04-01T16:50:33.141Z,15.88
2023-04-01T16:53:46.216Z,15.67
2023-04-01T16:56:55.564Z,15.68
2023-04-01T17:00:28.313Z,15.52
2023-04-01T17:04:02.172Z,15.40
2023-04-01T17:07:39.307Z,15.25
2023-04-01T17:10:51.989Z,15.15
2023-04-01T17:14:35.823Z,14.95
2023-04-01T17:18:07.699Z,14.88
2023-04-01T17:21:32.095Z,14.88
2023-04-01T17:25:05.123Z,14.75
2023-04-01T17:28:38.407Z,14.67
2023-04-01T17:32:22.850Z,14.57
2023-04-01T17:35:30.953Z,14.38
2023-04-01T17:38:58.990Z,14.26
2023-04-01T17:42:29.182Z,14.20
2023-04-01T17:45:38.277Z,14.20
2023-04-01T17:49:07.280Z,14.17
2023-04-01T17:52:41.703Z,14.14
2023-04-01T17:56:10.426Z,14.11
2023-04-01T17:59:40.864Z,13.99
2023-04-01T18:03:02.119Z,13.95
2023-04-01T18:06:31.004Z,13.93
2023-04-01T18:09:58.090Z,13.93
2023-04-01T18:13:32.095Z,13.95
2023-04-01T18:16:46.809Z,13.93
2023-04-01T18:20:22.869Z,13.83
2023-04-01T18:23:52.108Z,13.86
2023-04-01T18:27:17.374Z,13.73
2023-04-01T18:30:29.537Z,13.71
2023-04-01T18:34:01.249Z,13.63
2023-04-01T18:37:18.212Z,13.59
2023-04-01T18:40:38.962Z,13.49
2023-04-01T18:44:16.377Z,13.47
2023-04-01T18:47:56.358Z,13.34
2023-04-01T18:51:12.227Z,13.22
2023-04-01T18:54:25.865Z,13.25
2023-04-01T18:57:56.320Z,13.25
2023-04-01T19:01:28.788Z,13.31
2023-04-01T19:04:45.738Z,13.28
2023-04-01T19:08:15.168Z,13.24
2023-04-01T19:11:51.181Z,13.13
2023-04-01T19:15:18.310Z,13.12
2023-04-01T19:18:44.060Z,13.09
2023-04-01T19:21:58.851Z,13.14
2023-04-01T19:25:37.933Z,13.00
2023-04-01T19:29:24.586Z,12.99
2023-04-01T19:32:49.570Z,12.95
2023-04-01T19:36:07.941Z,12.91
2023-04-01T19:39:37.640Z,12.82
2023-04-01T19:43:06.995Z,12.80
2023-04-01T19:46:22.770Z,12.76
2023-04-01T19:49:36.363Z,12.77
2023-04-01T19:52:43.069Z,12.71
2023-04-01T19:55:46.579Z,12.84
2023-04-01T19:58:59.138Z,12.73
2023-04-01T20:02:29.911Z,12.79
2023-04-01T20:05:52.013Z,12.82
2023-04-01T20:09:23.499Z,12.81
2023-04-01T20:12:43.511Z,12.60
2023-04-01T20:15:56.674Z,12.50
2023-04-01T20:19:02.792Z,12.42
2023-04-01T20:22:27.031Z,12.38
2023-04-01T20:26:07.790Z,12.41
2023-04-01T20:29:46.715Z,12.32
2023-04-01T20:33:33.985Z,12.30
2023-04-01T20:37:23.542Z,12.42
2023-04-01T20:40:44.648Z,12.46
2023-04-01T20:44:05.182Z,12.29
2023-04-01T20:47:45.531Z,12.31
2023-04-01T20:51:05.815Z,12.26
2023-04-01T20:54:17.560Z,12.30
2023-04-01T20:57:59.255Z,12.22
2023-04-01T21:01:31.444Z,12.19
2023-04-01T21:05:02.767Z,12.39
2023-04-01T21:08:19.763Z,12.41
2023-04-01T21:11:40.084Z,12.26
2023-04-01T21:14:59.967Z,12.20
2023-04-01T21:18:33.188Z,12.07
2023-04-01T21:21:53.734Z,11.95
2023-04-01T21:25:23.717Z,12.02
2023-04-01T21:29:03.755Z,11.88
2023-04-01T21:32:17.914Z,11.58
2023-04-01T21:35:42.168Z,11.40
2023-04-01T21:39:17.465Z,11.45
2023-04-01T21:42:47.529Z,11.53
2023-04-01T21:46:08.782Z,11.52
2023-04-01T21:49:14.236Z,11.64
2023-04-01T21:52:39.445Z,11.80
2023-04-01T21:55:57.232Z,11.98
2023-04-01T21:59:48.025Z,12.07
2023-04-01T22:03:05.879Z,12.12
2023-04-01T22:06:19.707Z,12.17
2023-04-01T22:09:39.489Z,12.02
2023-04-01T22:13:09.185Z,12.00
2023-04-01T22:16:26.841Z,12.09
2023-04-01T22:19:41.514Z,11.97
2023-04-01T22:23:11.771Z,11.99
2023-04-01T22:26:39.110Z,11.92
2023-04-01T22:29:57.463Z,11.86
2023-04-01T22:33:11.246Z,11.91
2023-04-01T22:36:28.273Z,11.91
2023-04-01T22:39:58.440Z,11.99
2023-04-01T22:43:09.282Z,11.89
2023-04-01T22:46:21.251Z,11.79
2023-04-01T22:49:53.092Z,11.84
2023-04-01T22:53:19.589Z,11.83
2023-04-01T22:56:30.045Z,11.75
2023-04-01T22:59:43.470Z,11.70
2023-04-01T23:03:29.700Z,11.67
2023-04-01T23:06:47.747Z,11.67
2023-04-01T23:09:51.717Z,11.92
2023-04-01T23:12:59.155Z,11.76
2023-04-01T23:16:02.714Z,11.75
2023-04-01T23:19:26.007Z,11.80
2023-04-01T23:22:35.535Z,11.69
2023-04-01T23:25:49.168Z,11.68
2023-04-01T23:28:56.917Z,11.53
2023-04-01T23:32:03.684Z,11.55
2023-04-01T23:35:18.056Z,11.73
2023-04-01T23:38:24.418Z,11.80
2023-04-01T23:41:31.672Z,11.60
2023-04-01T23:44:36.440Z,11.49
2023-04-01T23:47:41.308Z,11.32
2023-04-01T23:50:46.268Z,11.15
2023-04-01T23:54:00.122Z,11.24
2023-04-01T23:57:12.396Z,11.28
